sensor_id;sensor_type;location;lat;lon;timestamp;P1;durP1;ratioP1;P2;durP2;ratioP2
30707;SDS011;17458;48.958;8.284;2024-02-16T00:02:36;8.95;;;5.25;;
30707;SDS011;17458;48.958;8.284;2024-02-16T00:05:21;11.13;;;5.40;;
30707;SDS011;17458;48.958;8.284;2024-02-16T00:08:05;13.55;;;5.07;;
30707;SDS011;17458;48.958;8.284;2024-02-16T00:10:49;9.27;;;5.05;;
30707;SDS011;17458;48.958;8.284;2024-02-16T00:13:34;10.18;;;4.30;;
30707;SDS011;17458;48.958;8.284;2024-02-16T00:16:18;8.18;;;5.55;;
30707;SDS011;17458;48.958;8.284;2024-02-16T00:19:02;7.32;;;4.22;;
30707;SDS011;17458;48.958;8.284;2024-02-16T00:21:46;9.25;;;4.30;;
30707;SDS011;17458;48.958;8.284;2024-02-16T00:24:30;6.28;;;4.38;;
30707;SDS011;17458;48.958;8.284;2024-02-16T00:27:15;6.75;;;4.47;;
30707;SDS011;17458;48.958;8.284;2024-02-16T00:30:00;10.07;;;4.50;;
30707;SDS011;17458;48.958;8.284;2024-02-16T00:32:47;9.45;;;3.92;;
30707;SDS011;17458;48.958;8.284;2024-02-16T00:35:31;7.32;;;4.43;;
30707;SDS011;17458;48.958;8.284;2024-02-16T00:38:16;6.20;;;4.38;;
30707;SDS011;17458;48.958;8.284;2024-02-16T00:41:00;9.55;;;4.78;;
30707;SDS011;17458;48.958;8.284;2024-02-16T00:43:44;13.18;;;5.00;;
30707;SDS011;17458;48.958;8.284;2024-02-16T00:46:28;11.95;;;4.75;;
30707;SDS011;17458;48.958;8.284;2024-02-16T00:49:12;7.65;;;4.90;;
30707;SDS011;17458;48.958;8.284;2024-02-16T00:51:56;6.18;;;3.95;;
30707;SDS011;17458;48.958;8.284;2024-02-16T00:54:40;6.68;;;3.95;;
30707;SDS011;17458;48.958;8.284;2024-02-16T00:57:24;5.50;;;3.38;;
30707;SDS011;17458;48.958;8.284;2024-02-16T01:00:08;8.63;;;4.13;;
30707;SDS011;17458;48.958;8.284;2024-02-16T01:02:53;8.52;;;4.90;;
30707;SDS011;17458;48.958;8.284;2024-02-16T01:05:37;6.43;;;4.30;;
30707;SDS011;17458;48.958;8.284;2024-02-16T01:08:20;11.07;;;4.53;;
30707;SDS011;17458;48.958;8.284;2024-02-16T01:11:06;6.25;;;3.80;;
30707;SDS011;17458;48.958;8.284;2024-02-16T01:13:51;4.47;;;3.70;;
30707;SDS011;17458;48.958;8.284;2024-02-16T01:16:36;7.70;;;4.32;;
30707;SDS011;17458;48.958;8.284;2024-02-16T01:19:20;5.72;;;4.00;;
30707;SDS011;17458;48.958;8.284;2024-02-16T01:22:04;4.93;;;3.97;;
30707;SDS011;17458;48.958;8.284;2024-02-16T01:24:48;6.70;;;4.03;;
30707;SDS011;17458;48.958;8.284;2024-02-16T01:27:33;6.88;;;3.88;;
30707;SDS011;17458;48.958;8.284;2024-02-16T01:30:17;6.68;;;3.50;;
30707;SDS011;17458;48.958;8.284;2024-02-16T01:33:02;8.52;;;3.85;;
30707;SDS011;17458;48.958;8.284;2024-02-16T01:35:46;7.47;;;3.72;;
30707;SDS011;17458;48.958;8.284;2024-02-16T01:38:30;11.00;;;5.18;;
30707;SDS011;17458;48.958;8.284;2024-02-16T01:41:14;7.38;;;3.97;;
30707;SDS011;17458;48.958;8.284;2024-02-16T01:43:58;5.07;;;4.03;;
30707;SDS011;17458;48.958;8.284;2024-02-16T01:46:42;4.32;;;3.55;;
30707;SDS011;17458;48.958;8.284;2024-02-16T01:49:27;8.85;;;4.22;;
30707;SDS011;17458;48.958;8.284;2024-02-16T01:52:12;4.60;;;3.58;;
30707;SDS011;17458;48.958;8.284;2024-02-16T01:54:56;6.75;;;3.80;;
30707;SDS011;17458;48.958;8.284;2024-02-16T01:57:45;5.78;;;3.72;;
30707;SDS011;17458;48.958;8.284;2024-02-16T02:00:30;4.63;;;3.33;;
30707;SDS011;17458;48.958;8.284;2024-02-16T02:03:14;6.55;;;3.90;;
30707;SDS011;17458;48.958;8.284;2024-02-16T02:05:59;6.82;;;3.83;;
30707;SDS011;17458;48.958;8.284;2024-02-16T02:08:44;4.93;;;3.58;;
30707;SDS011;17458;48.958;8.284;2024-02-16T02:11:27;4.32;;;3.65;;
30707;SDS011;17458;48.958;8.284;2024-02-16T02:14:11;9.85;;;3.83;;
30707;SDS011;17458;48.958;8.284;2024-02-16T02:16:55;5.60;;;3.30;;
30707;SDS011;17458;48.958;8.284;2024-02-16T02:19:40;9.88;;;4.13;;
30707;SDS011;17458;48.958;8.284;2024-02-16T02:22:23;3.65;;;3.05;;
30707;SDS011;17458;48.958;8.284;2024-02-16T02:25:07;10.55;;;4.05;;
30707;SDS011;17458;48.958;8.284;2024-02-16T02:27:54;6.45;;;3.28;;
30707;SDS011;17458;48.958;8.284;2024-02-16T02:30:38;5.28;;;3.63;;
30707;SDS011;17458;48.958;8.284;2024-02-16T02:33:22;6.18;;;3.80;;
30707;SDS011;17458;48.958;8.284;2024-02-16T02:36:06;5.28;;;3.05;;
30707;SDS011;17458;48.958;8.284;2024-02-16T02:38:50;5.10;;;3.50;;
30707;SDS011;17458;48.958;8.284;2024-02-16T02:41:34;6.82;;;2.88;;
30707;SDS011;17458;48.958;8.284;2024-02-16T02:44:18;5.03;;;4.00;;
30707;SDS011;17458;48.958;8.284;2024-02-16T02:47:05;6.38;;;3.80;;
30707;SDS011;17458;48.958;8.284;2024-02-16T02:49:50;9.15;;;4.47;;
30707;SDS011;17458;48.958;8.284;2024-02-16T02:52:33;6.97;;;3.67;;
30707;SDS011;17458;48.958;8.284;2024-02-16T02:55:17;4.35;;;3.10;;
30707;SDS011;17458;48.958;8.284;2024-02-16T02:58:01;4.35;;;3.25;;
30707;SDS011;17458;48.958;8.284;2024-02-16T03:00:45;7.95;;;3.47;;
30707;SDS011;17458;48.958;8.284;2024-02-16T03:03:30;9.88;;;3.47;;
30707;SDS011;17458;48.958;8.284;2024-02-16T03:06:18;3.92;;;3.17;;
30707;SDS011;17458;48.958;8.284;2024-02-16T03:09:03;5.78;;;3.22;;
30707;SDS011;17458;48.958;8.284;2024-02-16T03:11:47;6.13;;;3.10;;
30707;SDS011;17458;48.958;8.284;2024-02-16T03:14:31;9.85;;;3.75;;
30707;SDS011;17458;48.958;8.284;2024-02-16T03:17:15;5.50;;;3.33;;
30707;SDS011;17458;48.958;8.284;2024-02-16T03:19:59;7.70;;;3.38;;
30707;SDS011;17458;48.958;8.284;2024-02-16T03:22:43;4.00;;;3.40;;
30707;SDS011;17458;48.958;8.284;2024-02-16T03:25:27;4.50;;;3.58;;
30707;SDS011;17458;48.958;8.284;2024-02-16T03:28:11;5.30;;;3.63;;
30707;SDS011;17458;48.958;8.284;2024-02-16T03:30:56;4.90;;;3.28;;
30707;SDS011;17458;48.958;8.284;2024-02-16T03:33:40;3.90;;;2.75;;
30707;SDS011;17458;48.958;8.284;2024-02-16T03:36:24;4.45;;;2.83;;
30707;SDS011;17458;48.958;8.284;2024-02-16T03:39:08;6.88;;;3.42;;
30707;SDS011;17458;48.958;8.284;2024-02-16T03:41:52;5.13;;;2.92;;
30707;SDS011;17458;48.958;8.284;2024-02-16T03:44:36;3.95;;;3.22;;
30707;SDS011;17458;48.958;8.284;2024-02-16T03:47:20;3.58;;;3.10;;
30707;SDS011;17458;48.958;8.284;2024-02-16T03:50:04;5.13;;;3.15;;
30707;SDS011;17458;48.958;8.284;2024-02-16T03:52:50;3.92;;;2.85;;
30707;SDS011;17458;48.958;8.284;2024-02-16T03:55:34;7.45;;;3.10;;
30707;SDS011;17458;48.958;8.284;2024-02-16T03:58:21;5.85;;;2.83;;
30707;SDS011;17458;48.958;8.284;2024-02-16T04:01:05;4.60;;;2.85;;
30707;SDS011;17458;48.958;8.284;2024-02-16T04:03:50;3.38;;;3.05;;
30707;SDS011;17458;48.958;8.284;2024-02-16T04:06:36;5.07;;;3.10;;
30707;SDS011;17458;48.958;8.284;2024-02-16T04:09:20;5.13;;;3.03;;
30707;SDS011;17458;48.958;8.284;2024-02-16T04:12:04;3.25;;;2.90;;
30707;SDS011;17458;48.958;8.284;2024-02-16T04:14:48;5.35;;;2.97;;
30707;SDS011;17458;48.958;8.284;2024-02-16T04:17:32;5.15;;;2.95;;
30707;SDS011;17458;48.958;8.284;2024-02-16T04:20:17;5.00;;;3.58;;
30707;SDS011;17458;48.958;8.284;2024-02-16T04:23:02;4.38;;;3.47;;
30707;SDS011;17458;48.958;8.284;2024-02-16T04:25:46;3.35;;;3.00;;
30707;SDS011;17458;48.958;8.284;2024-02-16T04:28:30;6.80;;;2.92;;
30707;SDS011;17458;48.958;8.284;2024-02-16T04:31:14;6.15;;;3.75;;
30707;SDS011;17458;48.958;8.284;2024-02-16T04:33:58;4.40;;;3.22;;
30707;SDS011;17458;48.958;8.284;2024-02-16T04:36:43;5.78;;;3.58;;
30707;SDS011;17458;48.958;8.284;2024-02-16T04:39:27;10.88;;;3.38;;
30707;SDS011;17458;48.958;8.284;2024-02-16T04:42:13;8.10;;;3.28;;
30707;SDS011;17458;48.958;8.284;2024-02-16T04:44:57;4.55;;;2.88;;
30707;SDS011;17458;48.958;8.284;2024-02-16T04:47:41;6.65;;;2.80;;
30707;SDS011;17458;48.958;8.284;2024-02-16T04:50:25;5.30;;;3.33;;
30707;SDS011;17458;48.958;8.284;2024-02-16T04:53:10;5.90;;;3.22;;
30707;SDS011;17458;48.958;8.284;2024-02-16T04:55:54;3.42;;;2.88;;
30707;SDS011;17458;48.958;8.284;2024-02-16T04:58:42;7.68;;;3.80;;
30707;SDS011;17458;48.958;8.284;2024-02-16T05:01:26;6.07;;;3.45;;
30707;SDS011;17458;48.958;8.284;2024-02-16T05:04:12;10.90;;;3.70;;
30707;SDS011;17458;48.958;8.284;2024-02-16T05:06:57;5.18;;;3.60;;
30707;SDS011;17458;48.958;8.284;2024-02-16T05:09:41;6.55;;;3.22;;
30707;SDS011;17458;48.958;8.284;2024-02-16T05:12:26;8.65;;;3.60;;
30707;SDS011;17458;48.958;8.284;2024-02-16T05:15:10;6.85;;;3.85;;
30707;SDS011;17458;48.958;8.284;2024-02-16T05:17:57;7.90;;;3.38;;
30707;SDS011;17458;48.958;8.284;2024-02-16T05:20:41;6.47;;;3.47;;
30707;SDS011;17458;48.958;8.284;2024-02-16T05:23:25;4.50;;;3.50;;
30707;SDS011;17458;48.958;8.284;2024-02-16T05:26:09;5.00;;;3.78;;
30707;SDS011;17458;48.958;8.284;2024-02-16T05:28:53;5.05;;;3.33;;
30707;SDS011;17458;48.958;8.284;2024-02-16T05:31:37;3.80;;;3.40;;
30707;SDS011;17458;48.958;8.284;2024-02-16T05:34:20;3.95;;;3.53;;
30707;SDS011;17458;48.958;8.284;2024-02-16T05:37:05;4.85;;;3.30;;
30707;SDS011;17458;48.958;8.284;2024-02-16T05:39:50;4.45;;;3.08;;
30707;SDS011;17458;48.958;8.284;2024-02-16T05:42:37;3.03;;;2.78;;
30707;SDS011;17458;48.958;8.284;2024-02-16T05:45:22;9.73;;;2.30;;
30707;SDS011;17458;48.958;8.284;2024-02-16T05:48:07;7.05;;;3.22;;
30707;SDS011;17458;48.958;8.284;2024-02-16T05:50:51;3.42;;;3.13;;
30707;SDS011;17458;48.958;8.284;2024-02-16T05:53:35;6.10;;;3.33;;
30707;SDS011;17458;48.958;8.284;2024-02-16T05:56:18;10.38;;;3.72;;
30707;SDS011;17458;48.958;8.284;2024-02-16T05:59:02;6.78;;;4.57;;
30707;SDS011;17458;48.958;8.284;2024-02-16T06:01:46;8.70;;;4.82;;
30707;SDS011;17458;48.958;8.284;2024-02-16T06:04:31;7.13;;;3.97;;
30707;SDS011;17458;48.958;8.284;2024-02-16T06:07:15;6.68;;;3.97;;
30707;SDS011;17458;48.958;8.284;2024-02-16T06:09:58;8.73;;;4.28;;
30707;SDS011;17458;48.958;8.284;2024-02-16T06:12:42;7.18;;;4.22;;
30707;SDS011;17458;48.958;8.284;2024-02-16T06:15:26;4.65;;;3.33;;
30707;SDS011;17458;48.958;8.284;2024-02-16T06:18:10;4.00;;;3.55;;
30707;SDS011;17458;48.958;8.284;2024-02-16T06:20:54;6.15;;;4.07;;
30707;SDS011;17458;48.958;8.284;2024-02-16T06:23:39;7.13;;;3.50;;
30707;SDS011;17458;48.958;8.284;2024-02-16T06:26:23;17.80;;;4.05;;
30707;SDS011;17458;48.958;8.284;2024-02-16T06:29:07;5.32;;;3.40;;
30707;SDS011;17458;48.958;8.284;2024-02-16T06:31:52;5.13;;;3.55;;
30707;SDS011;17458;48.958;8.284;2024-02-16T06:34:36;3.05;;;2.65;;
30707;SDS011;17458;48.958;8.284;2024-02-16T06:37:20;12.57;;;3.35;;
30707;SDS011;17458;48.958;8.284;2024-02-16T06:40:04;7.93;;;3.58;;
30707;SDS011;17458;48.958;8.284;2024-02-16T06:42:49;7.43;;;3.60;;
30707;SDS011;17458;48.958;8.284;2024-02-16T06:45:33;7.22;;;3.50;;
30707;SDS011;17458;48.958;8.284;2024-02-16T06:48:17;4.85;;;3.25;;
30707;SDS011;17458;48.958;8.284;2024-02-16T06:51:01;6.97;;;3.38;;
30707;SDS011;17458;48.958;8.284;2024-02-16T06:53:45;4.82;;;2.92;;
30707;SDS011;17458;48.958;8.284;2024-02-16T06:56:29;5.55;;;3.50;;
30707;SDS011;17458;48.958;8.284;2024-02-16T06:59:14;4.93;;;3.60;;
30707;SDS011;17458;48.958;8.284;2024-02-16T07:01:58;11.02;;;3.63;;
30707;SDS011;17458;48.958;8.284;2024-02-16T07:04:42;5.38;;;3.20;;
30707;SDS011;17458;48.958;8.284;2024-02-16T07:07:26;3.38;;;3.00;;
30707;SDS011;17458;48.958;8.284;2024-02-16T07:10:10;9.05;;;3.75;;
30707;SDS011;17458;48.958;8.284;2024-02-16T07:12:57;10.02;;;3.63;;
30707;SDS011;17458;48.958;8.284;2024-02-16T07:15:40;7.55;;;3.20;;
30707;SDS011;17458;48.958;8.284;2024-02-16T07:18:25;3.70;;;3.35;;
30707;SDS011;17458;48.958;8.284;2024-02-16T07:21:09;4.82;;;3.15;;
30707;SDS011;17458;48.958;8.284;2024-02-16T07:23:53;4.30;;;2.95;;
30707;SDS011;17458;48.958;8.284;2024-02-16T07:26:37;4.70;;;2.78;;
30707;SDS011;17458;48.958;8.284;2024-02-16T07:29:21;3.63;;;2.80;;
30707;SDS011;17458;48.958;8.284;2024-02-16T07:32:04;4.60;;;2.92;;
30707;SDS011;17458;48.958;8.284;2024-02-16T07:34:49;4.80;;;3.10;;
30707;SDS011;17458;48.958;8.284;2024-02-16T07:37:34;7.35;;;3.20;;
30707;SDS011;17458;48.958;8.284;2024-02-16T07:40:18;5.40;;;3.40;;
30707;SDS011;17458;48.958;8.284;2024-02-16T07:43:02;3.65;;;2.92;;
30707;SDS011;17458;48.958;8.284;2024-02-16T07:45:46;4.28;;;3.65;;
30707;SDS011;17458;48.958;8.284;2024-02-16T07:48:30;4.22;;;3.25;;
30707;SDS011;17458;48.958;8.284;2024-02-16T07:51:14;7.97;;;2.83;;
30707;SDS011;17458;48.958;8.284;2024-02-16T07:53:58;7.68;;;3.85;;
30707;SDS011;17458;48.958;8.284;2024-02-16T07:56:42;7.22;;;3.28;;
30707;SDS011;17458;48.958;8.284;2024-02-16T07:59:26;4.03;;;3.15;;
30707;SDS011;17458;48.958;8.284;2024-02-16T08:02:10;7.95;;;3.58;;
30707;SDS011;17458;48.958;8.284;2024-02-16T08:04:59;8.48;;;3.63;;
30707;SDS011;17458;48.958;8.284;2024-02-16T08:07:43;10.68;;;3.75;;
30707;SDS011;17458;48.958;8.284;2024-02-16T08:10:27;7.10;;;3.97;;
30707;SDS011;17458;48.958;8.284;2024-02-16T08:13:11;5.15;;;3.55;;
30707;SDS011;17458;48.958;8.284;2024-02-16T08:15:55;15.70;;;4.63;;
30707;SDS011;17458;48.958;8.284;2024-02-16T08:18:40;6.22;;;3.80;;
30707;SDS011;17458;48.958;8.284;2024-02-16T08:21:27;13.60;;;4.97;;
30707;SDS011;17458;48.958;8.284;2024-02-16T08:24:11;7.22;;;3.80;;
30707;SDS011;17458;48.958;8.284;2024-02-16T08:26:55;8.30;;;3.42;;
30707;SDS011;17458;48.958;8.284;2024-02-16T08:29:40;8.82;;;3.95;;
30707;SDS011;17458;48.958;8.284;2024-02-16T08:32:24;9.32;;;3.90;;
30707;SDS011;17458;48.958;8.284;2024-02-16T08:35:08;6.50;;;4.22;;
30707;SDS011;17458;48.958;8.284;2024-02-16T08:37:52;7.25;;;4.85;;
30707;SDS011;17458;48.958;8.284;2024-02-16T08:40:36;8.30;;;4.20;;
30707;SDS011;17458;48.958;8.284;2024-02-16T08:43:21;11.13;;;4.32;;
30707;SDS011;17458;48.958;8.284;2024-02-16T08:46:06;8.80;;;4.90;;
30707;SDS011;17458;48.958;8.284;2024-02-16T08:48:51;9.43;;;3.92;;
30707;SDS011;17458;48.958;8.284;2024-02-16T08:51:35;8.60;;;4.65;;
30707;SDS011;17458;48.958;8.284;2024-02-16T08:54:19;7.97;;;4.75;;
30707;SDS011;17458;48.958;8.284;2024-02-16T08:57:03;7.68;;;4.55;;
30707;SDS011;17458;48.958;8.284;2024-02-16T08:59:47;7.22;;;4.95;;
30707;SDS011;17458;48.958;8.284;2024-02-16T09:02:31;7.03;;;4.70;;
30707;SDS011;17458;48.958;8.284;2024-02-16T09:05:15;9.15;;;4.38;;
30707;SDS011;17458;48.958;8.284;2024-02-16T09:07:59;7.15;;;4.68;;
30707;SDS011;17458;48.958;8.284;2024-02-16T09:10:42;12.52;;;5.15;;
30707;SDS011;17458;48.958;8.284;2024-02-16T09:13:26;13.35;;;4.85;;
30707;SDS011;17458;48.958;8.284;2024-02-16T09:16:10;9.10;;;5.15;;
30707;SDS011;17458;48.958;8.284;2024-02-16T09:18:54;11.75;;;4.88;;
30707;SDS011;17458;48.958;8.284;2024-02-16T09:21:38;8.63;;;4.97;;
30707;SDS011;17458;48.958;8.284;2024-02-16T09:24:22;6.00;;;4.32;;
30707;SDS011;17458;48.958;8.284;2024-02-16T09:27:08;11.80;;;5.40;;
30707;SDS011;17458;48.958;8.284;2024-02-16T09:29:53;10.95;;;5.53;;
30707;SDS011;17458;48.958;8.284;2024-02-16T09:32:40;8.77;;;5.07;;
30707;SDS011;17458;48.958;8.284;2024-02-16T09:35:25;6.13;;;4.28;;
30707;SDS011;17458;48.958;8.284;2024-02-16T09:38:09;7.82;;;4.90;;
30707;SDS011;17458;48.958;8.284;2024-02-16T09:40:56;5.82;;;4.22;;
30707;SDS011;17458;48.958;8.284;2024-02-16T09:43:40;7.32;;;4.85;;
30707;SDS011;17458;48.958;8.284;2024-02-16T09:46:24;4.95;;;3.55;;
30707;SDS011;17458;48.958;8.284;2024-02-16T09:49:09;7.55;;;3.88;;
30707;SDS011;17458;48.958;8.284;2024-02-16T09:51:53;9.23;;;5.72;;
30707;SDS011;17458;48.958;8.284;2024-02-16T09:54:43;8.25;;;4.53;;
30707;SDS011;17458;48.958;8.284;2024-02-16T09:57:27;9.05;;;3.80;;
30707;SDS011;17458;48.958;8.284;2024-02-16T10:00:11;8.23;;;4.72;;
30707;SDS011;17458;48.958;8.284;2024-02-16T10:02:56;6.32;;;4.25;;
30707;SDS011;17458;48.958;8.284;2024-02-16T10:05:40;9.75;;;3.95;;
30707;SDS011;17458;48.958;8.284;2024-02-16T10:08:24;5.63;;;3.90;;
30707;SDS011;17458;48.958;8.284;2024-02-16T10:11:08;10.73;;;3.83;;
30707;SDS011;17458;48.958;8.284;2024-02-16T10:13:56;8.32;;;5.22;;
30707;SDS011;17458;48.958;8.284;2024-02-16T10:16:40;8.35;;;4.63;;
30707;SDS011;17458;48.958;8.284;2024-02-16T10:19:24;5.85;;;3.50;;
30707;SDS011;17458;48.958;8.284;2024-02-16T10:22:11;7.43;;;3.47;;
30707;SDS011;17458;48.958;8.284;2024-02-16T10:25:06;9.98;;;3.33;;
30707;SDS011;17458;48.958;8.284;2024-02-16T10:27:56;2.97;;;2.25;;
30707;SDS011;17458;48.958;8.284;2024-02-16T10:30:43;3.35;;;2.28;;
30707;SDS011;17458;48.958;8.284;2024-02-16T10:33:28;5.80;;;2.75;;
30707;SDS011;17458;48.958;8.284;2024-02-16T10:36:15;5.07;;;2.50;;
30707;SDS011;17458;48.958;8.284;2024-02-16T10:39:00;4.55;;;2.58;;
30707;SDS011;17458;48.958;8.284;2024-02-16T10:41:54;3.13;;;2.40;;
30707;SDS011;17458;48.958;8.284;2024-02-16T10:44:42;7.03;;;2.53;;
30707;SDS011;17458;48.958;8.284;2024-02-16T10:47:27;3.30;;;2.38;;
30707;SDS011;17458;48.958;8.284;2024-02-16T10:50:11;5.35;;;2.20;;
30707;SDS011;17458;48.958;8.284;2024-02-16T10:52:57;4.55;;;2.10;;
30707;SDS011;17458;48.958;8.284;2024-02-16T10:55:44;3.78;;;2.63;;
30707;SDS011;17458;48.958;8.284;2024-02-16T10:58:28;5.18;;;2.55;;
30707;SDS011;17458;48.958;8.284;2024-02-16T11:01:14;5.75;;;2.25;;
30707;SDS011;17458;48.958;8.284;2024-02-16T11:04:06;4.40;;;1.73;;
30707;SDS011;17458;48.958;8.284;2024-02-16T11:06:56;7.65;;;2.60;;
30707;SDS011;17458;48.958;8.284;2024-02-16T11:09:43;2.72;;;2.03;;
30707;SDS011;17458;48.958;8.284;2024-02-16T11:12:32;2.47;;;2.25;;
30707;SDS011;17458;48.958;8.284;2024-02-16T11:15:26;4.38;;;2.50;;
30707;SDS011;17458;48.958;8.284;2024-02-16T11:18:11;6.03;;;2.15;;
30707;SDS011;17458;48.958;8.284;2024-02-16T11:20:55;2.85;;;2.00;;
30707;SDS011;17458;48.958;8.284;2024-02-16T11:23:39;8.05;;;2.95;;
30707;SDS011;17458;48.958;8.284;2024-02-16T11:26:23;4.00;;;2.30;;
30707;SDS011;17458;48.958;8.284;2024-02-16T11:29:08;2.35;;;2.00;;
30707;SDS011;17458;48.958;8.284;2024-02-16T11:31:55;5.10;;;2.00;;
30707;SDS011;17458;48.958;8.284;2024-02-16T11:34:41;3.13;;;1.98;;
30707;SDS011;17458;48.958;8.284;2024-02-16T11:37:25;1.75;;;1.55;;
30707;SDS011;17458;48.958;8.284;2024-02-16T11:40:11;5.28;;;2.05;;
30707;SDS011;17458;48.958;8.284;2024-02-16T11:42:59;6.90;;;1.90;;
30707;SDS011;17458;48.958;8.284;2024-02-16T11:45:44;5.40;;;2.35;;
30707;SDS011;17458;48.958;8.284;2024-02-16T11:48:28;5.88;;;2.20;;
30707;SDS011;17458;48.958;8.284;2024-02-16T11:51:14;4.57;;;2.90;;
30707;SDS011;17458;48.958;8.284;2024-02-16T11:53:59;5.80;;;2.47;;
30707;SDS011;17458;48.958;8.284;2024-02-16T11:56:46;3.20;;;1.73;;
30707;SDS011;17458;48.958;8.284;2024-02-16T11:59:35;7.47;;;1.90;;
30707;SDS011;17458;48.958;8.284;2024-02-16T12:02:19;2.92;;;1.88;;
30707;SDS011;17458;48.958;8.284;2024-02-16T12:05:05;5.15;;;1.73;;
30707;SDS011;17458;48.958;8.284;2024-02-16T12:07:49;3.47;;;1.92;;
30707;SDS011;17458;48.958;8.284;2024-02-16T12:10:33;8.10;;;1.70;;
30707;SDS011;17458;48.958;8.284;2024-02-16T12:13:18;7.03;;;2.17;;
30707;SDS011;17458;48.958;8.284;2024-02-16T12:16:03;5.22;;;2.15;;
30707;SDS011;17458;48.958;8.284;2024-02-16T12:18:47;3.67;;;1.55;;
30707;SDS011;17458;48.958;8.284;2024-02-16T12:21:31;5.00;;;2.10;;
30707;SDS011;17458;48.958;8.284;2024-02-16T12:24:16;4.03;;;1.92;;
30707;SDS011;17458;48.958;8.284;2024-02-16T12:27:00;4.47;;;1.48;;
30707;SDS011;17458;48.958;8.284;2024-02-16T12:29:44;2.95;;;2.13;;
30707;SDS011;17458;48.958;8.284;2024-02-16T12:32:28;4.45;;;1.58;;
30707;SDS011;17458;48.958;8.284;2024-02-16T12:35:12;5.38;;;2.28;;
30707;SDS011;17458;48.958;8.284;2024-02-16T12:37:56;3.55;;;2.05;;
30707;SDS011;17458;48.958;8.284;2024-02-16T12:40:40;2.83;;;1.90;;
30707;SDS011;17458;48.958;8.284;2024-02-16T12:43:25;1.20;;;1.10;;
30707;SDS011;17458;48.958;8.284;2024-02-16T12:46:09;5.93;;;1.60;;
30707;SDS011;17458;48.958;8.284;2024-02-16T12:48:53;4.65;;;1.90;;
30707;SDS011;17458;48.958;8.284;2024-02-16T12:51:37;3.17;;;1.85;;
30707;SDS011;17458;48.958;8.284;2024-02-16T12:54:21;2.78;;;1.73;;
30707;SDS011;17458;48.958;8.284;2024-02-16T12:57:11;9.40;;;1.83;;
30707;SDS011;17458;48.958;8.284;2024-02-16T12:59:56;2.63;;;1.63;;
30707;SDS011;17458;48.958;8.284;2024-02-16T13:02:40;2.70;;;1.40;;
30707;SDS011;17458;48.958;8.284;2024-02-16T13:05:24;5.82;;;1.92;;
30707;SDS011;17458;48.958;8.284;2024-02-16T13:08:08;4.05;;;1.98;;
30707;SDS011;17458;48.958;8.284;2024-02-16T13:10:52;3.88;;;1.63;;
30707;SDS011;17458;48.958;8.284;2024-02-16T13:13:36;3.25;;;1.50;;
30707;SDS011;17458;48.958;8.284;2024-02-16T13:16:20;2.42;;;1.55;;
30707;SDS011;17458;48.958;8.284;2024-02-16T13:19:05;2.15;;;1.58;;
30707;SDS011;17458;48.958;8.284;2024-02-16T13:21:49;5.57;;;1.33;;
30707;SDS011;17458;48.958;8.284;2024-02-16T13:24:34;4.20;;;1.67;;
30707;SDS011;17458;48.958;8.284;2024-02-16T13:27:18;2.70;;;1.25;;
30707;SDS011;17458;48.958;8.284;2024-02-16T13:30:02;2.72;;;1.33;;
30707;SDS011;17458;48.958;8.284;2024-02-16T13:32:50;7.75;;;1.70;;
30707;SDS011;17458;48.958;8.284;2024-02-16T13:35:34;4.50;;;1.40;;
30707;SDS011;17458;48.958;8.284;2024-02-16T13:38:19;5.65;;;1.55;;
30707;SDS011;17458;48.958;8.284;2024-02-16T13:41:03;5.93;;;1.70;;
30707;SDS011;17458;48.958;8.284;2024-02-16T13:43:48;3.40;;;1.33;;
30707;SDS011;17458;48.958;8.284;2024-02-16T13:46:32;2.80;;;1.60;;
30707;SDS011;17458;48.958;8.284;2024-02-16T13:49:16;1.67;;;1.58;;
30707;SDS011;17458;48.958;8.284;2024-02-16T13:52:00;4.25;;;1.60;;
30707;SDS011;17458;48.958;8.284;2024-02-16T13:54:44;2.47;;;1.63;;
30707;SDS011;17458;48.958;8.284;2024-02-16T13:57:28;1.10;;;1.00;;
30707;SDS011;17458;48.958;8.284;2024-02-16T14:00:12;4.15;;;1.33;;
30707;SDS011;17458;48.958;8.284;2024-02-16T14:02:56;1.73;;;1.20;;
30707;SDS011;17458;48.958;8.284;2024-02-16T14:05:40;8.13;;;1.30;;
30707;SDS011;17458;48.958;8.284;2024-02-16T14:08:25;1.83;;;1.65;;
30707;SDS011;17458;48.958;8.284;2024-02-16T14:11:10;2.55;;;1.65;;
30707;SDS011;17458;48.958;8.284;2024-02-16T14:13:54;3.10;;;1.48;;
30707;SDS011;17458;48.958;8.284;2024-02-16T14:16:38;3.78;;;1.52;;
30707;SDS011;17458;48.958;8.284;2024-02-16T14:19:22;5.78;;;1.75;;
30707;SDS011;17458;48.958;8.284;2024-02-16T14:22:06;1.95;;;1.70;;
30707;SDS011;17458;48.958;8.284;2024-02-16T14:24:51;4.30;;;1.63;;
30707;SDS011;17458;48.958;8.284;2024-02-16T14:27:34;4.30;;;2.38;;
30707;SDS011;17458;48.958;8.284;2024-02-16T14:30:18;2.63;;;1.40;;
30707;SDS011;17458;48.958;8.284;2024-02-16T14:33:03;4.38;;;2.00;;
30707;SDS011;17458;48.958;8.284;2024-02-16T14:35:48;2.63;;;1.95;;
30707;SDS011;17458;48.958;8.284;2024-02-16T14:38:31;2.65;;;1.17;;
30707;SDS011;17458;48.958;8.284;2024-02-16T14:41:15;1.67;;;1.17;;
30707;SDS011;17458;48.958;8.284;2024-02-16T14:44:00;5.97;;;1.20;;
30707;SDS011;17458;48.958;8.284;2024-02-16T14:46:44;1.20;;;1.10;;
30707;SDS011;17458;48.958;8.284;2024-02-16T14:49:29;1.98;;;1.35;;
30707;SDS011;17458;48.958;8.284;2024-02-16T14:52:15;1.48;;;1.38;;
30707;SDS011;17458;48.958;8.284;2024-02-16T14:54:59;1.75;;;1.58;;
30707;SDS011;17458;48.958;8.284;2024-02-16T14:57:44;2.05;;;1.75;;
30707;SDS011;17458;48.958;8.284;2024-02-16T15:00:27;6.18;;;1.63;;
30707;SDS011;17458;48.958;8.284;2024-02-16T15:03:12;2.17;;;1.60;;
30707;SDS011;17458;48.958;8.284;2024-02-16T15:05:57;1.77;;;1.45;;
30707;SDS011;17458;48.958;8.284;2024-02-16T15:08:41;1.85;;;1.60;;
30707;SDS011;17458;48.958;8.284;2024-02-16T15:11:24;3.60;;;1.90;;
30707;SDS011;17458;48.958;8.284;2024-02-16T15:14:09;2.05;;;1.38;;
30707;SDS011;17458;48.958;8.284;2024-02-16T15:16:53;3.00;;;1.92;;
30707;SDS011;17458;48.958;8.284;2024-02-16T15:19:37;1.48;;;1.38;;
30707;SDS011;17458;48.958;8.284;2024-02-16T15:22:20;1.98;;;1.67;;
30707;SDS011;17458;48.958;8.284;2024-02-16T15:25:04;1.85;;;1.65;;
30707;SDS011;17458;48.958;8.284;2024-02-16T15:27:49;2.08;;;1.33;;
30707;SDS011;17458;48.958;8.284;2024-02-16T15:30:35;1.75;;;1.42;;
30707;SDS011;17458;48.958;8.284;2024-02-16T15:33:19;4.18;;;1.58;;
30707;SDS011;17458;48.958;8.284;2024-02-16T15:36:03;2.72;;;2.25;;
30707;SDS011;17458;48.958;8.284;2024-02-16T15:38:48;2.65;;;1.42;;
30707;SDS011;17458;48.958;8.284;2024-02-16T15:41:32;3.30;;;2.03;;
30707;SDS011;17458;48.958;8.284;2024-02-16T15:44:17;7.07;;;1.70;;
30707;SDS011;17458;48.958;8.284;2024-02-16T15:47:01;3.03;;;1.65;;
30707;SDS011;17458;48.958;8.284;2024-02-16T15:49:44;2.00;;;1.40;;
30707;SDS011;17458;48.958;8.284;2024-02-16T15:52:28;3.80;;;1.77;;
30707;SDS011;17458;48.958;8.284;2024-02-16T15:55:12;1.50;;;1.40;;
30707;SDS011;17458;48.958;8.284;2024-02-16T15:57:57;2.05;;;1.70;;
30707;SDS011;17458;48.958;8.284;2024-02-16T16:00:42;1.52;;;1.42;;
30707;SDS011;17458;48.958;8.284;2024-02-16T16:03:26;2.15;;;1.70;;
30707;SDS011;17458;48.958;8.284;2024-02-16T16:06:10;2.47;;;1.92;;
30707;SDS011;17458;48.958;8.284;2024-02-16T16:08:54;4.05;;;2.05;;
30707;SDS011;17458;48.958;8.284;2024-02-16T16:11:38;1.80;;;1.48;;
30707;SDS011;17458;48.958;8.284;2024-02-16T16:14:26;3.90;;;2.08;;
30707;SDS011;17458;48.958;8.284;2024-02-16T16:17:10;1.80;;;1.70;;
30707;SDS011;17458;48.958;8.284;2024-02-16T16:19:53;6.15;;;1.83;;
30707;SDS011;17458;48.958;8.284;2024-02-16T16:22:37;1.90;;;1.80;;
30707;SDS011;17458;48.958;8.284;2024-02-16T16:25:21;4.05;;;2.03;;
30707;SDS011;17458;48.958;8.284;2024-02-16T16:28:05;8.55;;;3.97;;
30707;SDS011;17458;48.958;8.284;2024-02-16T16:30:49;6.75;;;2.85;;